Time;durP1;ratioP1;P1;durP2;ratioP2;P2;SDS_P1;SDS_P2;PMS_P1;PMS_P2;Temp;Humidity;BMP_temperature;BMP_pressure;BME280_temperature;BME280_humidity;BME280_pressure;Samples;Min_cycle;Max_cycle;Signal;HPM_P1;HPM_P2
2022/11/30 00:00:11;;;;;;;1.27;1.15;;;;;;;1.81;87.35;93503.38;5067654;28;20052;-34
2022/11/30 00:02:37;;;;;;;1.85;1.65;;;;;;;2.04;87.53;93532.13;5067508;28;20016;-34
2022/11/30 00:07:25;;;;;;;1.40;1.30;;;;;;;1.92;87.33;93534.09;5067621;28;20139;-34
2022/11/30 00:09:51;;;;;;;2.47;1.52;;;;;;;1.99;87.17;93524.72;5067530;28;20032;-34
2022/11/30 00:12:16;;;;;;;1.60;1.10;;;;;;;1.95;87.37;93530.38;5067701;28;20039;-34
2022/11/30 00:14:41;;;;;;;1.50;1.20;;;;;;;1.90;87.40;93527.66;5067533;28;20412;-34
2022/11/30 00:17:07;;;;;;;2.00;1.40;;;;;;;1.89;87.81;93534.31;5067664;28;20380;-34
2022/11/30 00:19:32;;;;;;;4.13;2.05;;;;;;;1.91;87.66;93535.31;5067342;28;20022;-34
2022/11/30 00:21:58;;;;;;;3.97;2.03;;;;;;;1.94;87.61;93545.25;5067237;28;20059;-34
2022/11/30 00:24:23;;;;;;;2.75;1.90;;;;;;;1.95;87.46;93537.81;5067361;28;20056;-34
2022/11/30 00:26:49;;;;;;;2.63;1.90;;;;;;;1.98;88.00;93545.75;5066767;28;20052;-34
2022/11/30 00:29:14;;;;;;;10.93;5.28;;;;;;;2.03;87.41;93547.75;5054659;28;20033;-34
2022/11/30 00:31:39;;;;;;;7.38;5.13;;;;;;;2.10;87.49;93549.97;5047188;28;20032;-34
2022/11/30 00:34:05;;;;;;;7.00;4.97;;;;;;;2.06;88.06;93543.28;5047021;28;20036;-34
2022/11/30 00:36:30;;;;;;;5.88;4.20;;;;;;;2.07;88.44;93553.69;5047171;28;20017;-34
2022/11/30 00:38:56;;;;;;;8.23;5.93;;;;;;;2.08;88.61;93557.16;5058274;28;20025;-34
2022/11/30 00:41:21;;;;;;;10.55;5.10;;;;;;;2.02;88.65;93562.59;5067081;28;20504;-34
2022/11/30 00:43:47;;;;;;;10.18;6.60;;;;;;;2.01;88.58;93554.91;5067189;28;20017;-34
2022/11/30 00:46:13;;;;;;;3.08;1.90;;;;;;;2.00;88.42;93548.72;5066787;28;20098;-34
2022/11/30 00:48:39;;;;;;;3.55;1.83;;;;;;;1.98;88.49;93550.44;5067112;28;20062;-34
2022/11/30 00:51:06;;;;;;;2.95;2.30;;;;;;;1.96;88.03;93547.47;5066736;28;20032;-34
2022/11/30 00:53:31;;;;;;;7.53;4.28;;;;;;;1.94;87.56;93547.97;5067046;28;20029;-34
2022/11/30 00:55:57;;;;;;;3.03;2.30;;;;;;;1.92;88.30;93555.13;5066680;28;20024;-34
2022/11/30 00:58:22;;;;;;;6.80;4.43;;;;;;;1.91;87.87;93551.66;5066859;28;20028;-34
2022/11/30 01:00:48;;;;;;;5.70;4.13;;;;;;;1.92;88.68;93553.16;5066390;28;20485;-34
2022/11/30 01:03:14;;;;;;;4.20;3.50;;;;;;;1.91;88.32;93559.06;5066448;28;20025;-34
2022/11/30 01:05:40;;;;;;;4.72;3.03;;;;;;;1.89;87.76;93542.47;5072080;28;20132;-34
2022/11/30 01:08:07;;;;;;;7.63;4.25;;;;;;;1.76;88.05;93540.22;5086501;28;20021;-34
2022/11/30 01:10:34;;;;;;;11.05;6.90;;;;;;;1.70;88.53;93546.88;5086591;28;20025;-34
2022/11/30 01:13:00;;;;;;;7.40;5.53;;;;;;;1.65;88.11;93534.72;5086478;28;20492;-34
2022/11/30 01:15:26;;;;;;;15.50;3.45;;;;;;;1.61;88.12;93549.81;5086421;28;20053;-34
2022/11/30 01:17:52;;;;;;;10.45;7.50;;;;;;;1.63;88.30;93548.09;5068068;28;20025;-34
2022/11/30 01:20:17;;;;;;;3.10;2.50;;;;;;;1.62;88.96;93541.16;5052770;28;20063;-34
2022/11/30 01:22:43;;;;;;;2.60;2.20;;;;;;;1.59;88.81;93542.13;5052852;28;20028;-34
2022/11/30 01:25:08;;;;;;;1.77;1.67;;;;;;;1.67;88.71;93542.44;5055794;28;20028;-34
2022/11/30 01:27:34;;;;;;;6.65;4.30;;;;;;;1.60;89.36;93542.88;5073027;28;20032;-34
2022/11/30 01:29:59;;;;;;;5.78;4.30;;;;;;;1.62;90.04;93549.34;5053884;28;20048;-34
2022/11/30 01:32:25;;;;;;;4.68;3.33;;;;;;;1.53;89.99;93533.97;5052698;28;20493;-34
2022/11/30 01:34:50;;;;;;;4.63;3.20;;;;;;;1.67;89.56;93551.31;5052751;28;20029;-34
2022/11/30 01:39:38;;;;;;;2.85;2.60;;;;;;;1.51;89.01;93546.56;5128662;27;20511;-34
2022/11/30 01:42:06;;;;;;;4.57;1.27;;;;;;;1.55;89.07;93552.50;5108133;28;20024;-34
2022/11/30 01:44:31;;;;;;;2.15;1.70;;;;;;;1.53;88.90;93546.81;5106950;28;20571;-34
2022/11/30 01:47:04;;;;;;;3.17;2.13;;;;;;;1.53;89.37;93547.56;5108394;28;20102;-34
2022/11/30 01:49:45;;;;;;;8.95;6.15;;;;;;;1.47;89.26;93546.06;5107947;28;20062;-34
2022/11/30 01:52:32;;;;;;;5.15;3.03;;;;;;;1.50;89.24;93543.09;5107778;28;20024;-34
2022/11/30 01:55:07;;;;;;;5.78;3.67;;;;;;;1.49;89.83;93538.13;5107434;28;20427;-34
2022/11/30 01:58:00;;;;;;;9.93;5.60;;;;;;;1.58;90.38;93537.19;5107940;28;20103;-34
2022/11/30 02:00:26;;;;;;;8.05;4.57;;;;;;;1.57;90.72;93535.69;5102888;28;20035;-34
2022/11/30 02:03:08;;;;;;;13.82;8.63;;;;;;;1.64;90.44;93532.50;5107919;28;20103;-33
2022/11/30 02:05:38;;;;;;;8.65;5.80;;;;;;;1.72;90.54;93530.78;5108008;28;20020;-34
2022/11/30 02:08:04;;;;;;;8.65;6.10;;;;;;;1.67;89.66;93537.72;5106677;28;20403;-34
2022/11/30 02:10:32;;;;;;;8.65;5.15;;;;;;;1.63;89.50;93533.72;5107481;28;20020;-34
2022/11/30 02:13:16;;;;;;;8.52;4.50;;;;;;;1.67;89.78;93526.09;5107479;28;20023;-34
2022/11/30 02:15:56;;;;;;;2.20;1.23;;;;;;;1.68;89.12;93525.59;5107383;28;20023;-34
2022/11/30 02:18:31;;;;;;;1.88;1.65;;;;;;;1.70;89.49;93530.53;5107548;28;20062;-34
2022/11/30 02:21:11;;;;;;;16.17;1.55;;;;;;;1.73;89.92;93529.56;5107676;28;20492;-34
2022/11/30 02:23:40;;;;;;;0.82;0.80;;;;;;;1.71;89.49;93527.31;5106157;28;20020;-34
2022/11/30 02:26:17;;;;;;;0.90;0.90;;;;;;;1.67;89.18;93520.66;5107168;28;20024;-34
2022/11/30 02:28:51;;;;;;;2.58;1.80;;;;;;;1.71;89.07;93524.59;5099146;28;20043;-34
2022/11/30 02:31:23;;;;;;;0.80;0.80;;;;;;;1.69;89.86;93518.19;5087105;28;20052;-33
2022/11/30 02:33:49;;;;;;;0.70;0.70;;;;;;;1.68;89.16;93520.16;5102593;28;20035;-34
2022/11/30 02:36:15;;;;;;;1.35;1.00;;;;;;;1.63;88.97;93528.28;5102392;28;20021;-34
2022/11/30 02:38:41;;;;;;;0.80;0.80;;;;;;;1.71;88.48;93527.31;5095589;28;20124;-34
2022/11/30 02:41:06;;;;;;;2.08;0.80;;;;;;;1.65;87.17;93518.41;5105802;28;20049;-34
2022/11/30 02:43:32;;;;;;;1.40;1.30;;;;;;;1.61;88.08;93520.63;5107211;28;20054;-34
2022/11/30 02:46:05;;;;;;;0.82;0.82;;;;;;;1.65;88.77;93526.56;5105952;28;20046;-34
2022/11/30 02:48:50;;;;;;;1.40;1.20;;;;;;;1.60;88.63;93526.56;5105643;28;20129;-34
2022/11/30 02:51:22;;;;;;;1.60;1.33;;;;;;;1.58;88.01;93534.47;5091696;28;20032;-34
2022/11/30 02:53:47;;;;;;;1.80;0.85;;;;;;;1.59;88.29;93530.50;5092015;28;20024;-34
2022/11/30 02:56:13;;;;;;;1.63;1.17;;;;;;;1.58;88.28;93529.03;5091863;28;20024;-34
2022/11/30 02:58:39;;;;;;;1.00;0.90;;;;;;;1.55;88.13;93530.75;5093262;28;20085;-34
2022/11/30 03:01:04;;;;;;;0.77;0.77;;;;;;;1.49;88.21;93533.44;5093342;28;20412;-34
2022/11/30 03:03:30;;;;;;;0.60;0.60;;;;;;;1.51;87.85;93538.41;5093178;28;20028;-34
2022/11/30 03:05:55;;;;;;;1.40;1.30;;;;;;;1.45;87.74;93526.75;5093227;28;20480;-34
2022/11/30 03:08:21;;;;;;;4.60;3.95;;;;;;;1.52;87.91;93529.00;5092843;28;20024;-34
2022/11/30 03:10:46;;;;;;;20.77;9.80;;;;;;;1.56;87.88;93536.94;5092873;28;20024;-34
2022/11/30 03:13:12;;;;;;;24.98;14.18;;;;;;;1.52;88.75;93529.75;5093025;28;20030;-34
2022/11/30 03:15:37;;;;;;;13.43;8.82;;;;;;;1.57;88.81;93533.72;5092921;28;20098;-34
2022/11/30 03:18:03;;;;;;;7.05;5.03;;;;;;;1.52;88.39;93527.03;5080750;28;20020;-34
2022/11/30 03:20:29;;;;;;;11.38;5.60;;;;;;;1.43;87.75;93529.94;5072353;28;20029;-34
2022/11/30 03:22:59;;;;;;;13.57;6.57;;;;;;;1.40;88.47;93528.22;5072411;28;20081;-34
2022/11/30 03:25:25;;;;;;;12.85;5.68;;;;;;;1.50;89.24;93531.44;5072005;28;20020;-34
2022/11/30 03:27:50;;;;;;;18.23;8.82;;;;;;;1.52;89.25;93532.47;5073353;28;20094;-34
2022/11/30 03:30:16;;;;;;;35.55;18.13;;;;;;;1.57;89.45;93528.28;5092314;28;20030;-34
2022/11/30 03:32:41;;;;;;;13.00;6.43;;;;;;;1.57;90.24;93532.97;5092427;28;20050;-34
2022/11/30 03:35:07;;;;;;;14.80;7.13;;;;;;;1.57;90.10;93535.69;5081550;28;20028;-34
2022/11/30 03:37:32;;;;;;;12.52;7.25;;;;;;;1.59;88.88;93539.41;5072056;28;20048;-34
2022/11/30 03:39:58;;;;;;;13.60;7.05;;;;;;;1.58;88.73;93542.63;5072018;28;20039;-34
2022/11/30 03:42:23;;;;;;;8.88;5.65;;;;;;;1.55;88.18;93549.78;5072016;28;20035;-34
2022/11/30 03:44:49;;;;;;;9.02;5.32;;;;;;;1.49;87.82;93538.88;5071834;28;20020;-34
2022/11/30 03:47:14;;;;;;;10.63;5.20;;;;;;;1.59;87.85;93541.38;5071955;28;20031;-34
2022/11/30 03:49:39;;;;;;;4.70;3.58;;;;;;;1.57;88.46;93541.88;5072020;28;20025;-34
2022/11/30 03:52:05;;;;;;;6.43;3.05;;;;;;;1.46;88.58;93534.41;5071669;28;20386;-34
2022/11/30 03:54:30;;;;;;;5.18;3.40;;;;;;;1.50;88.40;93534.19;5071688;28;20020;-34
2022/11/30 03:56:56;;;;;;;5.10;4.53;;;;;;;1.51;89.06;93543.84;5071660;28;20023;-34
2022/11/30 03:59:21;;;;;;;3.28;2.95;;;;;;;1.48;89.11;93542.09;5071587;28;20115;-34
2022/11/30 04:01:47;;;;;;;5.38;2.72;;;;;;;1.50;89.76;93543.09;5069329;28;20025;-34
2022/11/30 04:04:12;;;;;;;5.28;3.47;;;;;;;1.52;90.51;93548.03;5071775;28;20032;-34
2022/11/30 04:06:39;;;;;;;7.03;5.03;;;;;;;1.47;89.73;93549.50;5071753;28;20032;-34
2022/11/30 04:09:05;;;;;;;12.63;7.35;;;;;;;1.48;89.36;93552.97;5071727;28;20474;-34
2022/11/30 04:11:30;;;;;;;8.80;6.10;;;;;;;1.47;88.95;93551.50;5071383;28;20028;-34
2022/11/30 04:13:56;;;;;;;2.78;2.53;;;;;;;1.44;88.54;93553.19;5071328;28;20020;-34
2022/11/30 04:16:21;;;;;;;1.80;1.67;;;;;;;1.41;88.62;93551.44;5071267;28;20024;-34
2022/11/30 04:18:47;;;;;;;1.40;1.30;;;;;;;1.46;88.79;93550.00;5089018;28;20023;-34
2022/11/30 04:21:12;;;;;;;1.48;1.38;;;;;;;1.40;88.72;93552.69;5091480;28;20031;-34
2022/11/30 04:23:39;;;;;;;7.18;1.83;;;;;;;1.34;89.06;93562.78;5091650;28;20028;-34
2022/11/30 04:26:06;;;;;;;0.60;0.60;;;;;;;1.38;88.73;93551.69;5090947;28;20058;-34
2022/11/30 04:28:33;;;;;;;1.13;1.02;;;;;;;1.42;88.74;93549.47;5084594;28;20492;-34
2022/11/30 04:30:59;;;;;;;4.88;0.90;;;;;;;1.41;88.85;93556.88;5089339;28;20024;-34
2022/11/30 04:33:26;;;;;;;1.17;1.08;;;;;;;1.43;88.92;93556.41;5091526;28;20024;-34
2022/11/30 04:35:54;;;;;;;1.58;1.48;;;;;;;1.50;89.60;93561.38;5091217;28;20039;-34
2022/11/30 04:38:20;;;;;;;0.95;0.95;;;;;;;1.62;89.47;93556.75;5090964;28;20098;-34
2022/11/30 04:40:45;;;;;;;1.55;1.27;;;;;;;1.61;89.56;93557.97;5091145;28;20028;-34
2022/11/30 04:43:11;;;;;;;5.50;3.42;;;;;;;1.67;89.48;93559.47;5091336;28;20107;-34
2022/11/30 04:45:37;;;;;;;3.05;2.45;;;;;;;1.66;89.74;93559.97;5090992;28;20031;-34
2022/11/30 04:48:04;;;;;;;1.70;1.60;;;;;;;1.60;89.98;93559.97;5090998;28;20020;-34
2022/11/30 04:50:29;;;;;;;0.40;0.40;;;;;;;1.64;89.04;93562.44;5090973;28;20530;-34
2022/11/30 04:52:55;;;;;;;0.75;0.75;;;;;;;1.63;88.81;93558.22;5091002;28;20055;-34
2022/11/30 04:55:20;;;;;;;1.45;0.90;;;;;;;1.63;88.68;93552.78;5091177;28;20016;-34
2022/11/30 04:57:46;;;;;;;1.40;1.30;;;;;;;1.73;89.14;93573.13;5091029;28;20553;-34
2022/11/30 05:00:16;;;;;;;2.33;1.90;;;;;;;1.71;89.26;93559.25;5090825;28;20020;-34
2022/11/30 05:02:42;;;;;;;1.60;1.40;;;;;;;1.76;89.50;93558.53;5090710;28;20077;-34
2022/11/30 05:05:08;;;;;;;0.88;0.88;;;;;;;1.54;89.10;93534.69;5090740;28;20031;-34
2022/11/30 05:07:33;;;;;;;0.98;0.98;;;;;;;1.63;88.58;93563.66;5090714;28;20020;-34
2022/11/30 05:09:59;;;;;;;0.60;0.60;;;;;;;1.64;87.60;93562.44;5090881;28;20027;-34
2022/11/30 05:12:24;;;;;;;1.75;0.90;;;;;;;1.57;87.23;93557.44;5090320;28;20518;-34
2022/11/30 05:14:50;;;;;;;1.05;0.90;;;;;;;1.57;87.76;93565.63;5090867;28;20023;-34
2022/11/30 05:17:15;;;;;;;5.32;0.82;;;;;;;1.52;87.70;93570.53;5085596;28;20028;-34
2022/11/30 05:19:41;;;;;;;0.52;0.52;;;;;;;1.49;87.92;93565.34;5070534;28;20503;-34
2022/11/30 05:22:06;;;;;;;0.47;0.47;;;;;;;1.46;88.06;93569.03;5070251;28;20119;-34
2022/11/30 05:24:32;;;;;;;0.50;0.50;;;;;;;1.43;88.08;93573.47;5070615;28;20027;-34
2022/11/30 05:26:58;;;;;;;0.47;0.47;;;;;;;1.44;88.75;93585.09;5083311;28;20463;-34
2022/11/30 05:29:23;;;;;;;0.85;0.50;;;;;;;1.46;88.40;93577.19;5084061;28;20031;-34
2022/11/30 05:31:49;;;;;;;2.47;1.00;;;;;;;1.45;88.39;93581.88;5090645;28;20024;-34
2022/11/30 05:34:14;;;;;;;22.45;8.95;;;;;;;1.51;89.27;93585.41;5090350;28;20051;-34
2022/11/30 05:36:40;;;;;;;22.38;10.27;;;;;;;1.60;89.50;93587.19;5090304;28;20019;-34
2022/11/30 05:39:05;;;;;;;7.13;4.78;;;;;;;1.60;89.54;93583.69;5090205;28;20059;-34
2022/11/30 05:41:31;;;;;;;8.55;4.18;;;;;;;1.63;89.43;93590.88;5090542;28;20028;-34
2022/11/30 05:43:56;;;;;;;4.45;3.83;;;;;;;1.67;89.37;93585.97;5090231;28;20089;-34
2022/11/30 05:46:22;;;;;;;7.20;5.15;;;;;;;1.64;88.55;93595.09;5090441;28;20066;-34
2022/11/30 05:48:47;;;;;;;5.05;3.92;;;;;;;1.66;88.75;93587.19;5090439;28;20035;-34
2022/11/30 05:51:15;;;;;;;3.80;2.80;;;;;;;1.70;88.15;93585.72;5090161;28;20545;-33
2022/11/30 05:53:41;;;;;;;2.92;2.22;;;;;;;1.64;88.31;93586.94;5090114;28;20481;-34
2022/11/30 05:56:09;;;;;;;3.13;2.28;;;;;;;1.61;87.66;93583.19;5090026;28;20438;-34
2022/11/30 05:58:36;;;;;;;2.35;2.03;;;;;;;1.62;87.94;93603.00;5090366;28;20452;-34
2022/11/30 06:01:03;;;;;;;1.40;1.30;;;;;;;1.64;88.11;93605.97;5090102;28;20028;-34
2022/11/30 06:03:29;;;;;;;4.03;2.55;;;;;;;1.64;87.80;93611.44;5089986;28;20039;-34
2022/11/30 06:05:54;;;;;;;0.80;0.80;;;;;;;1.46;87.59;93604.41;5090389;28;20031;-34
2022/11/30 06:08:20;;;;;;;0.95;0.80;;;;;;;1.42;87.24;93593.75;5090180;28;20031;-33
2022/11/30 06:10:46;;;;;;;5.13;2.92;;;;;;;1.51;87.03;93618.06;5090324;28;20462;-34
2022/11/30 06:13:12;;;;;;;2.90;2.33;;;;;;;1.50;86.52;93622.00;5090263;28;20111;-34
2022/11/30 06:15:42;;;;;;;5.63;3.75;;;;;;;1.46;87.42;93616.03;5090177;28;20513;-34
2022/11/30 06:18:10;;;;;;;2.15;1.80;;;;;;;1.51;86.97;93615.31;5089837;28;20031;-34
2022/11/30 06:20:36;;;;;;;5.57;3.17;;;;;;;1.25;87.54;93614.66;5090212;28;20028;-34
2022/11/30 06:23:01;;;;;;;1.40;1.20;;;;;;;1.35;88.19;93618.69;5086290;28;20514;-34
2022/11/30 06:25:27;;;;;;;3.13;1.92;;;;;;;1.35;89.20;93615.97;5077555;28;20407;-34
2022/11/30 06:27:53;;;;;;;4.03;3.00;;;;;;;1.47;89.07;93622.22;5092649;28;20020;-34
2022/11/30 06:30:18;;;;;;;12.32;6.47;;;;;;;1.59;90.00;93621.03;5085214;28;20028;-34
2022/11/30 06:32:45;;;;;;;14.52;7.50;;;;;;;1.63;90.08;93626.25;5093844;28;20024;-34
2022/11/30 06:35:11;;;;;;;5.88;4.30;;;;;;;1.67;90.99;93626.78;5093599;28;20024;-34
2022/11/30 06:37:36;;;;;;;5.18;3.10;;;;;;;1.75;90.94;93633.25;5093432;28;20051;-34
2022/11/30 06:40:02;;;;;;;8.18;4.35;;;;;;;1.77;91.11;93638.97;5093498;28;20024;-34
2022/11/30 06:42:29;;;;;;;1.95;1.35;;;;;;;1.85;90.43;93642.69;5092143;28;20028;-34
2022/11/30 06:44:55;;;;;;;0.85;0.70;;;;;;;1.75;88.77;93635.97;5093411;28;20028;-34
2022/11/30 06:47:20;;;;;;;0.57;0.57;;;;;;;1.63;88.55;93637.13;5093297;28;20073;-34
2022/11/30 06:49:46;;;;;;;4.43;0.70;;;;;;;1.64;88.33;93639.38;5093242;28;20036;-34
2022/11/30 06:52:11;;;;;;;2.00;1.80;;;;;;;1.61;88.72;93639.59;5093087;28;20024;-34
2022/11/30 06:54:37;;;;;;;5.93;4.32;;;;;;;1.69;89.45;93637.94;5093453;28;20035;-34
2022/11/30 06:57:02;;;;;;;4.30;3.17;;;;;;;1.69;89.72;93638.66;5093097;28;20424;-34
2022/11/30 06:59:28;;;;;;;2.58;1.88;;;;;;;1.72;89.53;93640.41;5093272;28;20094;-34
2022/11/30 07:01:53;;;;;;;4.00;1.92;;;;;;;1.80;89.85;93646.16;5092990;28;20028;-34
2022/11/30 07:04:19;;;;;;;1.73;1.63;;;;;;;1.86;89.92;93647.69;5092878;28;20024;-34
2022/11/30 07:06:44;;;;;;;8.15;4.22;;;;;;;1.97;89.67;93641.53;5092892;28;20028;-34
2022/11/30 07:09:12;;;;;;;18.67;7.65;;;;;;;2.03;90.13;93640.31;5093144;28;20051;-34
2022/11/30 07:11:37;;;;;;;27.20;12.15;;;;;;;2.10;89.70;93645.28;5093123;28;20477;-34
2022/11/30 07:14:03;;;;;;;16.30;9.32;;;;;;;2.17;90.02;93646.78;5092730;28;20032;-34
2022/11/30 07:16:28;;;;;;;17.13;9.30;;;;;;;2.23;89.38;93642.13;5093032;28;20024;-34
2022/11/30 07:18:53;;;;;;;9.45;5.43;;;;;;;2.26;89.14;93641.13;5091918;28;20058;-34
2022/11/30 07:21:19;;;;;;;14.98;4.60;;;;;;;2.25;88.56;93643.13;5072739;28;20032;-34
2022/11/30 07:26:28;;;;;;;15.60;6.95;;;;;;;2.36;88.85;93638.94;5087011;28;20121;-34
2022/11/30 07:28:56;;;;;;;8.70;5.65;;;;;;;2.41;88.22;93630.78;5082633;28;20485;-34
2022/11/30 07:33:05;;;;;;;9.77;6.45;;;;;;;2.49;87.42;93639.97;5108128;27;20615;-34
2022/11/30 07:35:30;;;;;;;4.90;2.75;;;;;;;2.45;87.55;93638.72;5108304;28;20040;-34
2022/11/30 07:37:56;;;;;;;3.35;2.08;;;;;;;2.41;87.53;93641.69;5108003;28;20028;-34
2022/11/30 07:40:21;;;;;;;3.85;2.65;;;;;;;2.43;86.02;93639.22;5108187;28;20032;-34
2022/11/30 07:42:47;;;;;;;3.40;2.20;;;;;;;2.42;85.85;93640.47;5108205;28;20543;-34
2022/11/30 07:45:12;;;;;;;3.72;2.78;;;;;;;2.44;86.07;93642.69;5107925;28;20510;-34
2022/11/30 07:47:38;;;;;;;3.58;2.38;;;;;;;2.40;85.57;93631.28;5108130;28;20015;-34
2022/11/30 07:50:03;;;;;;;3.40;2.78;;;;;;;2.43;86.16;93635.72;5107943;28;20027;-34
2022/11/30 07:52:30;;;;;;;8.88;5.97;;;;;;;2.46;86.87;93632.03;5107617;28;20028;-34
2022/11/30 07:54:55;;;;;;;8.63;5.93;;;;;;;2.54;87.35;93628.34;5107959;28;20042;-34
2022/11/30 07:57:20;;;;;;;11.13;4.90;;;;;;;2.65;86.58;93630.34;5107917;28;20016;-34
2022/11/30 07:59:46;;;;;;;9.30;4.63;;;;;;;2.59;86.50;93603.09;5107627;28;20020;-34
2022/11/30 08:02:12;;;;;;;3.58;2.90;;;;;;;2.75;86.04;93624.16;5107422;28;20024;-34
2022/11/30 08:04:37;;;;;;;9.05;3.50;;;;;;;2.79;85.24;93632.09;5107562;28;20028;-34
2022/11/30 08:07:02;;;;;;;7.93;4.20;;;;;;;2.69;85.78;93628.84;5107457;28;20084;-34
2022/11/30 08:09:28;;;;;;;5.88;3.58;;;;;;;2.60;86.52;93626.34;5107430;28;20043;-34
2022/11/30 08:11:53;;;;;;;4.13;3.30;;;;;;;2.72;87.36;93619.69;5107294;28;20024;-34
2022/11/30 08:14:19;;;;;;;5.00;3.10;;;;;;;2.85;87.70;93619.97;5107297;28;20039;-34
2022/11/30 08:16:44;;;;;;;7.07;3.03;;;;;;;2.91;87.58;93611.78;5107121;28;20035;-34
2022/11/30 08:19:09;;;;;;;3.78;2.80;;;;;;;2.97;85.93;93616.00;5107487;28;20036;-34
2022/11/30 08:21:36;;;;;;;4.32;2.78;;;;;;;2.81;86.15;93618.72;5107464;28;20031;-34
2022/11/30 08:24:02;;;;;;;5.15;2.78;;;;;;;2.59;88.39;93622.16;5107394;28;20062;-34
2022/11/30 08:26:30;;;;;;;5.15;3.58;;;;;;;2.55;88.96;93621.66;5106641;28;20548;-34
2022/11/30 08:28:57;;;;;;;3.30;2.45;;;;;;;2.67;89.01;93620.44;5098275;28;20053;-34
2022/11/30 08:31:30;;;;;;;4.47;3.58;;;;;;;2.75;89.58;93615.97;5106664;28;20581;-34
2022/11/30 08:34:04;;;;;;;3.75;2.65;;;;;;;2.83;90.06;93625.16;5107013;28;20035;-34
2022/11/30 08:36:30;;;;;;;2.63;1.63;;;;;;;2.85;89.72;93630.88;5107051;28;20491;-34
2022/11/30 08:38:57;;;;;;;3.00;2.20;;;;;;;2.80;88.26;93623.41;5106841;28;20036;-34
2022/11/30 08:41:22;;;;;;;5.28;2.83;;;;;;;2.87;87.76;93625.66;5107121;28;20031;-34
2022/11/30 08:43:48;;;;;;;2.80;2.42;;;;;;;2.89;86.71;93625.16;5096577;28;20411;-34
2022/11/30 08:46:16;;;;;;;6.28;3.28;;;;;;;2.85;86.25;93619.97;5093362;28;20102;-34
2022/11/30 08:48:41;;;;;;;3.60;2.65;;;;;;;2.86;85.90;93620.69;5093415;28;20085;-34
2022/11/30 08:51:10;;;;;;;2.05;1.70;;;;;;;2.80;86.30;93614.50;5092964;28;20024;-34
2022/11/30 08:53:36;;;;;;;3.60;2.03;;;;;;;2.76;86.32;93612.03;5093297;28;20468;-33
2022/11/30 08:56:20;;;;;;;2.45;1.88;;;;;;;2.78;86.70;93615.00;5093253;28;20051;-34
2022/11/30 08:58:46;;;;;;;3.58;2.00;;;;;;;2.81;87.54;93603.13;5093010;28;20054;-34
2022/11/30 09:01:20;;;;;;;7.05;3.47;;;;;;;2.88;87.81;93608.06;5092821;28;20077;-34
2022/11/30 09:03:47;;;;;;;6.45;3.80;;;;;;;2.86;87.10;93601.59;5092875;28;20036;-34
2022/11/30 09:06:24;;;;;;;5.10;3.17;;;;;;;2.83;87.31;93611.53;5092745;28;20035;-34
2022/11/30 09:08:51;;;;;;;4.63;3.65;;;;;;;2.76;87.86;93605.81;5092752;28;20020;-34
2022/11/30 09:11:35;;;;;;;3.67;2.47;;;;;;;2.80;88.23;93609.78;5093000;28;20431;-34
2022/11/30 09:14:06;;;;;;;1.52;1.42;;;;;;;2.87;87.56;93617.50;5072803;28;20029;-34
2022/11/30 09:16:32;;;;;;;1.30;1.20;;;;;;;2.88;87.12;93618.97;5072420;28;20114;-34
2022/11/30 09:18:57;;;;;;;2.13;1.90;;;;;;;2.92;86.16;93621.47;5092020;28;20081;-34
2022/11/30 09:21:23;;;;;;;1.67;1.50;;;;;;;2.87;85.27;93625.66;5092476;28;20506;-34
2022/11/30 09:23:49;;;;;;;3.15;2.10;;;;;;;2.74;85.48;93616.47;5092536;28;20027;-34
2022/11/30 09:26:18;;;;;;;11.15;5.60;;;;;;;2.70;85.90;93629.59;5079155;28;20120;-34
2022/11/30 09:28:44;;;;;;;8.67;5.13;;;;;;;2.70;85.27;93630.34;5080465;28;20020;-34
2022/11/30 09:31:12;;;;;;;12.68;7.25;;;;;;;2.52;85.84;93632.78;5092426;28;20041;-34
2022/11/30 09:33:38;;;;;;;2.17;1.98;;;;;;;2.48;86.14;93627.59;5092316;28;20559;-34
2022/11/30 09:36:06;;;;;;;5.07;3.08;;;;;;;2.42;87.05;93626.09;5092480;28;20503;-34
2022/11/30 09:38:31;;;;;;;4.07;2.10;;;;;;;2.38;87.87;93629.06;5091192;28;20431;-34
2022/11/30 09:40:59;;;;;;;2.35;2.00;;;;;;;2.43;88.35;93630.28;5092461;28;20020;-34
2022/11/30 09:43:38;;;;;;;4.30;3.28;;;;;;;2.53;88.27;93632.31;5092334;28;20462;-34
2022/11/30 09:46:05;;;;;;;2.03;1.88;;;;;;;2.59;87.09;93641.25;5092059;28;20510;-34
2022/11/30 09:49:01;;;;;;;2.45;1.92;;;;;;;2.58;86.71;93634.28;5092187;28;20035;-34
2022/11/30 09:51:40;;;;;;;2.88;2.55;;;;;;;2.62;87.52;93639.50;5090665;28;20081;-34
2022/11/30 09:54:11;;;;;;;3.28;2.75;;;;;;;2.67;87.97;93636.03;5090482;28;20415;-34
2022/11/30 09:56:42;;;;;;;8.45;3.33;;;;;;;2.71;88.44;93628.34;5091434;28;20102;-34
2022/11/30 09:59:19;;;;;;;7.88;3.65;;;;;;;2.78;88.33;93630.59;5090932;28;20104;-34
2022/11/30 10:01:47;;;;;;;5.43;2.88;;;;;;;2.75;88.77;93626.88;5092004;28;20024;-34
2022/11/30 10:04:27;;;;;;;2.90;2.60;;;;;;;2.77;88.22;93615.50;5091906;28;20030;-34
2022/11/30 10:07:05;;;;;;;5.38;2.63;;;;;;;2.71;87.37;93631.09;5090470;28;20024;-34
2022/11/30 10:09:30;;;;;;;8.50;3.90;;;;;;;2.68;87.10;93632.84;5075502;28;20443;-34
2022/11/30 10:12:18;;;;;;;8.38;4.68;;;;;;;2.66;87.72;93632.59;5071244;28;20020;-34
2022/11/30 10:15:01;;;;;;;7.50;3.60;;;;;;;2.54;87.30;93631.06;5071262;28;20504;-34
2022/11/30 10:17:42;;;;;;;4.65;3.78;;;;;;;2.58;87.35;93639.00;5076779;28;20074;-34
2022/11/30 10:20:24;;;;;;;9.80;5.18;;;;;;;2.53;87.69;93637.75;5091285;28;20031;-33
2022/11/30 10:23:22;;;;;;;3.15;2.20;;;;;;;2.54;87.34;93633.78;5090124;28;20051;-34
2022/11/30 10:25:56;;;;;;;3.97;2.38;;;;;;;2.48;87.51;93627.59;5067702;28;20024;-34
2022/11/30 10:28:42;;;;;;;7.40;3.88;;;;;;;2.50;88.31;93627.84;5086087;28;20020;-34
2022/11/30 10:31:10;;;;;;;3.42;2.40;;;;;;;2.55;88.05;93618.19;5090055;28;20054;-34
2022/11/30 10:33:47;;;;;;;10.73;5.32;;;;;;;2.65;87.91;93622.16;5089948;28;20492;-34
2022/11/30 10:36:26;;;;;;;4.03;2.80;;;;;;;2.58;88.24;93601.59;5090940;28;20031;-34
2022/11/30 10:38:56;;;;;;;5.95;3.92;;;;;;;2.70;87.42;93613.25;5090163;28;20031;-34
2022/11/30 10:41:27;;;;;;;7.82;5.13;;;;;;;2.76;88.02;93622.19;5089787;28;20520;-34
2022/11/30 10:44:03;;;;;;;13.32;7.25;;;;;;;2.79;87.54;93627.41;5089806;28;20107;-34
2022/11/30 10:46:57;;;;;;;4.63;3.92;;;;;;;2.76;86.88;93625.66;5090963;28;20099;-34
2022/11/30 10:49:24;;;;;;;2.90;2.53;;;;;;;2.80;86.87;93628.88;5089959;28;20062;-34
2022/11/30 10:51:53;;;;;;;3.30;1.88;;;;;;;2.90;85.95;93629.38;5089547;28;20016;-34
2022/11/30 10:54:20;;;;;;;2.28;1.60;;;;;;;2.94;85.31;93630.63;5091041;28;20107;-34
2022/11/30 10:56:46;;;;;;;2.88;2.20;;;;;;;2.84;85.46;93629.38;5090666;28;20039;-34
2022/11/30 10:59:18;;;;;;;1.95;1.45;;;;;;;2.89;85.31;93625.16;5090990;28;20020;-34
2022/11/30 11:01:44;;;;;;;2.30;1.60;;;;;;;2.96;85.30;93617.25;5090887;28;20103;-34
2022/11/30 11:04:14;;;;;;;1.55;1.45;;;;;;;3.14;85.35;93615.25;5090474;28;20074;-34
2022/11/30 11:07:49;;;;;;;5.05;3.22;;;;;;;3.33;86.34;93610.78;5067536;28;20600;-34
2022/11/30 11:10:16;;;;;;;4.82;3.25;;;;;;;3.39;86.39;93606.06;5067861;28;20033;-34
2022/11/30 11:12:47;;;;;;;19.83;8.77;;;;;;;3.46;86.18;93602.81;5066303;28;20028;-34
2022/11/30 11:15:28;;;;;;;21.30;10.23;;;;;;;3.33;86.37;93580.75;5066253;28;20024;-34
2022/11/30 11:18:11;;;;;;;9.32;5.00;;;;;;;3.45;86.67;93601.31;5067631;28;20020;-34
2022/11/30 11:20:43;;;;;;;7.63;4.85;;;;;;;3.44;86.93;93589.69;5067600;28;20032;-34
2022/11/30 11:23:33;;;;;;;4.43;3.28;;;;;;;3.52;86.57;93585.19;5067404;28;20610;-34
2022/11/30 11:25:58;;;;;;;10.13;3.08;;;;;;;3.50;86.02;93581.47;5065729;28;20515;-34
2022/11/30 11:28:24;;;;;;;1.90;1.58;;;;;;;3.49;85.58;93580.72;5066231;28;20132;-34
2022/11/30 11:30:54;;;;;;;4.90;3.03;;;;;;;3.43;86.28;93579.25;5084555;28;20024;-34
2022/11/30 11:33:28;;;;;;;3.30;2.75;;;;;;;3.48;87.42;93575.78;5086466;28;20020;-34
2022/11/30 11:36:11;;;;;;;3.28;2.38;;;;;;;3.47;86.98;93574.28;5087606;28;20051;-34
2022/11/30 11:38:45;;;;;;;5.85;3.70;;;;;;;3.48;86.81;93562.88;5087120;28;20472;-34
2022/11/30 11:41:32;;;;;;;2.22;2.03;;;;;;;3.55;87.04;93553.44;5087140;28;20035;-34
2022/11/30 11:44:10;;;;;;;3.97;2.50;;;;;;;3.65;86.94;93555.38;5085904;28;20054;-34
2022/11/30 11:46:55;;;;;;;3.30;2.97;;;;;;;3.78;85.87;93555.59;5087310;28;20016;-34
2022/11/30 11:49:49;;;;;;;3.92;2.78;;;;;;;3.88;85.50;93560.78;5085840;28;20111;-34
2022/11/30 11:52:19;;;;;;;1.98;1.55;;;;;;;3.84;85.85;93558.28;5085535;28;20069;-34
2022/11/30 11:54:58;;;;;;;2.60;2.10;;;;;;;3.83;84.68;93563.00;5087145;28;20484;-34
2022/11/30 11:57:47;;;;;;;2.58;2.08;;;;;;;3.75;85.31;93566.75;5085756;28;20516;-34